Sydney Ann — WDD2405 — position and weather

sailwx.info

Track history (hours):
 
Tides and Currents Weather Stations Pressure Air Temp Water Temp Dewpoint Dewpoint Depression Visibility Wind Speed Wind Dir Waves Ship Positions

Sydney Ann

Owner: LeBeouf Bros. Towing, LLC, Houma, LA. More information available from US FCC via Universal Licensing System and Coast Guard Vessel Documentation Center.

Last reported at 2018-Feb-12 18:32 UTC. Time now 2018-Feb-19 08:10 UTC.
Position N 29°33' W 090°24'.

Length 23 m; draft 3 m.

Type: Towing. MMSI: 367114880.

Date/timePositionNaut miles runAvg speedWind from/ knotsBaromVisibWave heightAir tempDewpointWater temp
2018-Feb-12 18:32N 29°33' W 090°24'0 7.1
2018-Feb-12 18:29N 29°33' W 090°24'3 7.3
2018-Feb-12 18:00N 29°34' W 090°28'4 7.2
2018-Feb-12 17:29N 29°34' W 090°33'3 5.6
2018-Feb-12 17:00N 29°34' W 090°36'0 0.1
2018-Feb-12 16:30N 29°34' W 090°36'0 0.4
2018-Feb-12 16:00N 29°35' W 090°35'0 0.3
2018-Feb-12 15:16N 29°34' W 090°36'0 0.0
2018-Feb-12 13:48N 29°34' W 090°36'0 0.0
2018-Feb-12 13:30N 29°34' W 090°36'0 0.0
2018-Feb-12 13:00N 29°34' W 090°36'0 0.0
2018-Feb-12 12:30N 29°34' W 090°36'0 0.0
2018-Feb-12 12:00N 29°34' W 090°36'0 0.0
2018-Feb-12 11:30N 29°34' W 090°36'0 0.0
2018-Feb-12 11:00N 29°34' W 090°36'0 0.0
2018-Feb-12 10:30N 29°34' W 090°36'0 0.0
2018-Feb-12 09:57N 29°34' W 090°36'0 0.0
2018-Feb-12 09:30N 29°34' W 090°36'0 0.0
2018-Feb-12 09:00N 29°34' W 090°36'0 0.0
2018-Feb-12 08:30N 29°34' W 090°36'0 0.0
2018-Feb-12 08:00N 29°34' W 090°36'0 0.0
2018-Feb-12 07:30N 29°34' W 090°36'0 0.0
2018-Feb-12 07:00N 29°34' W 090°36'0 0.0
2018-Feb-12 06:30N 29°34' W 090°36'0 0.0
2018-Feb-12 06:00N 29°34' W 090°36'0 0.0
2018-Feb-12 05:30N 29°34' W 090°36'0 0.0
2018-Feb-12 05:00N 29°34' W 090°36'0 0.0
2018-Feb-12 04:30N 29°34' W 090°36'0 0.0
2018-Feb-12 03:57N 29°34' W 090°36'0 0.0
2018-Feb-12 03:30N 29°34' W 090°36'0 0.0
2018-Feb-12 03:00N 29°34' W 090°36'0 0.0
2018-Feb-12 02:30N 29°34' W 090°36'0 0.0
2018-Feb-12 02:00N 29°34' W 090°36'0 0.0
2018-Feb-12 01:30N 29°34' W 090°36'0 0.0
2018-Feb-12 01:00N 29°34' W 090°36'0 0.0
2018-Feb-12 00:30N 29°34' W 090°36'0 0.0
2018-Feb-12 00:00N 29°34' W 090°36'0 0.0
2018-Feb-11 23:30N 29°34' W 090°36'0 0.0
2018-Feb-11 23:00N 29°34' W 090°36'0 0.0
2018-Feb-11 22:30N 29°34' W 090°36'0 0.0
2018-Feb-11 22:00N 29°34' W 090°36'0 0.0
2018-Feb-11 21:30N 29°34' W 090°36'0 0.0
2018-Feb-11 21:00N 29°34' W 090°36'0 0.0
2018-Feb-11 20:30N 29°34' W 090°36'0 0.0
2018-Feb-11 20:00N 29°34' W 090°36'0 0.0
2018-Feb-11 19:30N 29°34' W 090°36'0 0.0
2018-Feb-11 19:00N 29°34' W 090°36'0 0.0
2018-Feb-11 18:30N 29°34' W 090°36'0 0.0
2018-Feb-11 18:00N 29°34' W 090°36'0 0.0
2018-Feb-11 17:30N 29°34' W 090°36'0 0.0
2018-Feb-11 17:00N 29°34' W 090°36'0 0.0
2018-Feb-11 16:30N 29°34' W 090°36'0 0.0
2018-Feb-11 16:00N 29°34' W 090°36'0 0.0
2018-Feb-11 15:30N 29°34' W 090°36'0 0.0
2018-Feb-11 15:00N 29°34' W 090°36'0 0.0
2018-Feb-11 14:30N 29°34' W 090°36'0 0.0
2018-Feb-11 14:00N 29°34' W 090°36'0 0.0
2018-Feb-11 13:30N 29°34' W 090°36'0 0.0
2018-Feb-11 13:00N 29°34' W 090°36'0 0.0
2018-Feb-11 12:30N 29°34' W 090°36'0 0.0
2018-Feb-11 12:00N 29°34' W 090°36'0 0.0
2018-Feb-11 11:30N 29°34' W 090°36'0 0.0
2018-Feb-11 11:00N 29°34' W 090°36'0 0.0
2018-Feb-11 10:30N 29°34' W 090°36'0 0.0
2018-Feb-11 10:00N 29°34' W 090°36'0 0.0
2018-Feb-11 09:30N 29°34' W 090°36'0 0.0
2018-Feb-11 09:00N 29°34' W 090°36'0 0.0
2018-Feb-11 08:30N 29°34' W 090°36'0 0.0
2018-Feb-11 08:00N 29°34' W 090°36'0 0.0
2018-Feb-11 07:30N 29°34' W 090°36'0 0.0
2018-Feb-11 07:00N 29°34' W 090°36'0 0.0
2018-Feb-11 06:30N 29°34' W 090°36'0 0.0
2018-Feb-11 06:00N 29°34' W 090°36'0 0.0
2018-Feb-11 05:30N 29°34' W 090°36'0 0.0
2018-Feb-11 05:00N 29°34' W 090°36'0 0.0
2018-Feb-11 04:30N 29°34' W 090°36'0 0.0
2018-Feb-11 04:00N 29°34' W 090°36'0 0.0
2018-Feb-11 03:30N 29°34' W 090°36'0 0.0
2018-Feb-11 03:00N 29°34' W 090°36'0 0.0
2018-Feb-11 02:30N 29°34' W 090°36'0 0.0
2018-Feb-11 02:00N 29°34' W 090°36'0 0.0
2018-Feb-11 01:30N 29°34' W 090°36'0 0.0
2018-Feb-11 01:00N 29°34' W 090°36'0 0.0
2018-Feb-11 00:30N 29°34' W 090°36'0 0.0
2018-Feb-11 00:00N 29°34' W 090°36'0 0.0
2018-Feb-10 23:30N 29°34' W 090°36'0 0.0
2018-Feb-10 23:00N 29°34' W 090°36'0 0.0
2018-Feb-10 22:30N 29°34' W 090°36'0 0.0
2018-Feb-10 22:00N 29°34' W 090°36'0 0.0
2018-Feb-10 21:30N 29°34' W 090°36'0 0.0
2018-Feb-10 21:00N 29°34' W 090°36'0 0.0
2018-Feb-10 20:30N 29°34' W 090°36'0 0.0
2018-Feb-10 20:00N 29°34' W 090°36'0 0.0
2018-Feb-10 19:30N 29°34' W 090°36'0 0.0
2018-Feb-10 19:00N 29°34' W 090°36'0 0.0
2018-Feb-10 18:30N 29°34' W 090°36'0 0.0
2018-Feb-10 18:00N 29°34' W 090°36'0 0.0
2018-Feb-10 17:30N 29°34' W 090°36'0 0.0
2018-Feb-10 17:00N 29°34' W 090°36'0 0.0
2018-Feb-10 16:30N 29°34' W 090°36'0 0.0
2018-Feb-10 16:00N 29°34' W 090°36'0 0.0
2018-Feb-10 15:30N 29°34' W 090°36'0 0.0
2018-Feb-10 15:00N 29°34' W 090°36'0 0.0
2018-Feb-10 14:30N 29°34' W 090°36'0 0.0
2018-Feb-10 14:00N 29°34' W 090°36'0 0.0
2018-Feb-10 13:30N 29°34' W 090°36'0 0.0
2018-Feb-10 13:00N 29°34' W 090°36'0 0.0
2018-Feb-10 12:30N 29°34' W 090°36'0 0.0
2018-Feb-10 12:00N 29°34' W 090°36'0 0.0
2018-Feb-10 11:30N 29°34' W 090°36'0 0.0
2018-Feb-10 11:00N 29°34' W 090°36'0 0.0
2018-Feb-10 10:30N 29°34' W 090°36'0 0.0
2018-Feb-10 10:00N 29°34' W 090°36'0 0.0
2018-Feb-10 09:30N 29°34' W 090°36'0 0.0
2018-Feb-10 09:00N 29°34' W 090°36'0 0.0
2018-Feb-10 08:30N 29°34' W 090°36'0 0.0
2018-Feb-10 08:00N 29°34' W 090°36'0 0.0
2018-Feb-10 07:30N 29°34' W 090°36'0 0.0
2018-Feb-10 06:57N 29°34' W 090°36'0 0.0
2018-Feb-10 06:30N 29°34' W 090°36'0 0.0
2018-Feb-10 06:00N 29°34' W 090°36'0 0.0
2018-Feb-10 05:30N 29°34' W 090°36'0 0.0
2018-Feb-10 05:00N 29°34' W 090°36'0 0.0
2018-Feb-10 04:30N 29°34' W 090°36'0 0.0
2018-Feb-10 04:00N 29°34' W 090°36'0 0.0
2018-Feb-10 03:30N 29°34' W 090°36'0 0.0
2018-Feb-10 03:00N 29°34' W 090°36'0 0.0
2018-Feb-10 02:30N 29°34' W 090°36'0 0.0
2018-Feb-10 02:00N 29°34' W 090°36'0 0.0
2018-Feb-10 01:30N 29°34' W 090°36'0 0.0
2018-Feb-10 01:00N 29°34' W 090°36'0 0.0
2018-Feb-10 00:30N 29°34' W 090°36'0 0.0
2018-Feb-10 00:00N 29°34' W 090°36'0 0.0
2018-Feb-09 23:30N 29°34' W 090°36'0 0.0
2018-Feb-09 23:00N 29°34' W 090°36'0 0.0
2018-Feb-09 22:45N 29°34' W 090°36'  
2018-Feb-05 19:51N 29°34' W 090°36'0 0.0
2018-Feb-05 19:30N 29°34' W 090°36'0 0.0
2018-Feb-05 13:17N 29°35' W 090°36'0 0.0
2018-Feb-05 12:59N 29°35' W 090°36'0 0.0
2018-Feb-05 12:29N 29°35' W 090°36'0 0.0
2018-Feb-05 11:59N 29°35' W 090°36'0 0.0
2018-Feb-05 11:29N 29°35' W 090°36'0 0.0
2018-Feb-05 10:59N 29°35' W 090°36'0 0.0
2018-Feb-05 10:29N 29°35' W 090°36'0 0.0
2018-Feb-05 09:59N 29°35' W 090°36'0 0.0
2018-Feb-05 09:29N 29°35' W 090°36'0 0.0
2018-Feb-05 08:59N 29°35' W 090°36'0 0.0
2018-Feb-05 08:29N 29°35' W 090°36'0 0.0
2018-Feb-05 07:59N 29°35' W 090°36'0 0.0
2018-Feb-05 07:29N 29°35' W 090°36'0 0.0
2018-Feb-05 06:59N 29°35' W 090°36'0 0.0
2018-Feb-05 06:29N 29°35' W 090°36'0 0.0
2018-Feb-05 05:29N 29°35' W 090°36'0 0.0
2018-Feb-05 04:59N 29°35' W 090°36'0 0.0
2018-Feb-05 04:29N 29°35' W 090°36'0 0.0
2018-Feb-05 03:56N 29°35' W 090°36'0 0.0
2018-Feb-05 03:29N 29°35' W 090°36'0 0.0
2018-Feb-05 02:59N 29°35' W 090°36'0 0.0
2018-Feb-05 02:29N 29°35' W 090°36'0 0.0
2018-Feb-05 01:59N 29°35' W 090°36'0 0.0
2018-Feb-05 01:29N 29°35' W 090°36'0 0.0
2018-Feb-05 00:59N 29°35' W 090°36'0 0.0
2018-Feb-05 00:29N 29°35' W 090°36'0 0.0
2018-Feb-04 23:59N 29°35' W 090°36'0 0.0
2018-Feb-04 23:29N 29°35' W 090°36'0 0.0
2018-Feb-04 22:59N 29°35' W 090°36'0 0.0
2018-Feb-04 22:29N 29°35' W 090°36'0 0.0
2018-Feb-04 21:59N 29°35' W 090°36'0 0.0
2018-Feb-04 21:29N 29°35' W 090°36'0 0.0
2018-Feb-04 20:59N 29°35' W 090°36'0 0.0
2018-Feb-04 19:59N 29°35' W 090°36'0 0.0
2018-Feb-04 19:29N 29°35' W 090°36'0 0.0
2018-Feb-04 18:59N 29°35' W 090°36'0 0.0
2018-Feb-04 18:29N 29°35' W 090°36'0 0.0
2018-Feb-04 17:59N 29°35' W 090°36'0 0.0
2018-Feb-04 17:29N 29°35' W 090°36'0 0.0
2018-Feb-04 15:29N 29°35' W 090°36'0 0.0
2018-Feb-04 14:59N 29°35' W 090°36'0 0.0
2018-Feb-04 14:29N 29°35' W 090°36'0 0.0
2018-Feb-04 13:59N 29°35' W 090°36'0 0.0
2018-Feb-04 13:29N 29°35' W 090°36'0 0.0
2018-Feb-04 12:59N 29°35' W 090°36'0 0.0
2018-Feb-04 12:29N 29°35' W 090°36'0 0.0
2018-Feb-04 11:59N 29°35' W 090°36'0 0.0
2018-Feb-04 11:29N 29°35' W 090°36'0 0.0
2018-Feb-04 09:59N 29°35' W 090°36'0 0.0
2018-Feb-04 08:59N 29°35' W 090°36'0 0.0
2018-Feb-04 08:29N 29°35' W 090°36'0 0.0
2018-Feb-04 07:59N 29°35' W 090°36'0 0.0
2018-Feb-04 07:29N 29°35' W 090°36'0 0.0
2018-Feb-04 06:59N 29°35' W 090°36'0 0.0
2018-Feb-04 06:29N 29°35' W 090°36'0 0.0
2018-Feb-04 05:59N 29°35' W 090°36'0 0.0
2018-Feb-04 05:29N 29°35' W 090°36'0 0.0
2018-Feb-04 04:59N 29°35' W 090°36'0 0.0
2018-Feb-04 04:29N 29°35' W 090°36'0 0.0
2018-Feb-04 03:59N 29°35' W 090°36'0 0.0
2018-Feb-04 03:29N 29°35' W 090°36'0 0.0
2018-Feb-04 02:59N 29°35' W 090°36'0 0.0
2018-Feb-04 02:29N 29°35' W 090°36'0 0.0
2018-Feb-04 01:59N 29°35' W 090°36'0 0.0
2018-Feb-04 01:29N 29°35' W 090°36'0 0.0
2018-Feb-04 00:59N 29°35' W 090°36'0 0.0
2018-Feb-04 00:29N 29°35' W 090°36'0 0.0
2018-Feb-03 23:59N 29°35' W 090°36'0 0.0
2018-Feb-03 23:29N 29°35' W 090°36'0 0.0
2018-Feb-03 22:59N 29°35' W 090°36'0 0.0
2018-Feb-03 22:29N 29°35' W 090°36'0 0.0
2018-Feb-03 21:59N 29°35' W 090°36'0 0.0
2018-Feb-03 21:29N 29°35' W 090°36'0 0.0
2018-Feb-03 20:59N 29°35' W 090°36'0 0.0
2018-Feb-03 20:29N 29°35' W 090°36'0 0.0
2018-Feb-03 19:59N 29°35' W 090°36'0 0.0
2018-Feb-03 18:29N 29°35' W 090°36'0 0.0
2018-Feb-03 17:59N 29°35' W 090°36'0 0.0
2018-Feb-03 17:29N 29°35' W 090°36'0 0.0
2018-Feb-03 16:59N 29°35' W 090°36'0 0.0
2018-Feb-03 15:59N 29°35' W 090°36'0 0.0
2018-Feb-03 15:29N 29°35' W 090°36'0 0.0
2018-Feb-03 14:59N 29°35' W 090°36'0 0.0
2018-Feb-03 14:29N 29°35' W 090°36'0 0.0
2018-Feb-03 13:59N 29°35' W 090°36'0 0.0
2018-Feb-03 13:29N 29°35' W 090°36'0 0.0
2018-Feb-03 12:59N 29°35' W 090°36'0 0.0
2018-Feb-03 12:23N 29°35' W 090°36'0 0.0
2018-Feb-03 11:59N 29°35' W 090°36'0 0.0
2018-Feb-03 11:29N 29°35' W 090°36'0 0.0
2018-Feb-03 10:59N 29°35' W 090°36'0 0.0
2018-Feb-03 10:26N 29°35' W 090°36'0 0.0
2018-Feb-03 09:59N 29°35' W 090°36'0 0.0
2018-Feb-03 09:29N 29°35' W 090°36'0 0.0
2018-Feb-03 08:59N 29°35' W 090°36'0 0.0
2018-Feb-03 08:29N 29°35' W 090°36'0 0.0
2018-Feb-03 07:59N 29°35' W 090°36'0 0.0
2018-Feb-03 06:26N 29°35' W 090°36'0 0.0
2018-Feb-03 05:59N 29°35' W 090°36'0 0.0
2018-Feb-03 05:26N 29°35' W 090°36'0 0.0
2018-Feb-03 04:59N 29°35' W 090°36'0 0.0
2018-Feb-03 03:59N 29°35' W 090°36'0 0.0
2018-Feb-03 03:29N 29°35' W 090°36'0 0.0
2018-Feb-03 01:59N 29°35' W 090°36'0 0.0
2018-Feb-03 01:29N 29°35' W 090°36'0 0.0
2018-Feb-03 00:59N 29°35' W 090°36'0 0.0
2018-Feb-03 00:29N 29°35' W 090°36'0 0.0
2018-Feb-02 23:59N 29°35' W 090°36'0 0.0
2018-Feb-02 23:29N 29°35' W 090°36'0 0.0
2018-Feb-02 22:59N 29°35' W 090°36'0 0.0
2018-Feb-02 22:29N 29°35' W 090°36'0 0.0
2018-Feb-02 21:59N 29°35' W 090°36'0 0.0
2018-Feb-02 21:29N 29°35' W 090°36'0 0.0
2018-Feb-02 20:56N 29°35' W 090°36'0 0.0
2018-Feb-02 20:29N 29°35' W 090°36'0 0.0
2018-Feb-02 19:59N 29°35' W 090°36'0 0.0
2018-Feb-02 18:59N 29°35' W 090°36'  
Track history (hours):
 
Tides and Currents Weather Stations Pressure Air Temp Water Temp Dewpoint Dewpoint Depression Visibility Wind Speed Wind Dir Waves Ship Positions

Sydney Ann

Owner: LeBeouf Bros. Towing, LLC, Houma, LA. More information available from US FCC via Universal Licensing System and Coast Guard Vessel Documentation Center.

Last reported at 2018-Feb-12 18:32 UTC. Time now 2018-Feb-19 08:10 UTC.
Position N 29°33' W 090°24'.

Length 23 m; draft 3 m.

Type: Towing. MMSI: 367114880.

Date/timePositionNaut miles runAvg speedWind from/ knotsBaromVisibWave heightAir tempDewpointWater temp
2018-Feb-12 18:32N 29°33' W 090°24'0 7.1
2018-Feb-12 18:29N 29°33' W 090°24'3 7.3
2018-Feb-12 18:00N 29°34' W 090°28'4 7.2
2018-Feb-12 17:29N 29°34' W 090°33'3 5.6
2018-Feb-12 17:00N 29°34' W 090°36'0 0.1
2018-Feb-12 16:30N 29°34' W 090°36'0 0.4
2018-Feb-12 16:00N 29°35' W 090°35'0 0.3
2018-Feb-12 15:16N 29°34' W 090°36'0 0.0
2018-Feb-12 13:48N 29°34' W 090°36'0 0.0
2018-Feb-12 13:30N 29°34' W 090°36'0 0.0
2018-Feb-12 13:00N 29°34' W 090°36'0 0.0
2018-Feb-12 12:30N 29°34' W 090°36'0 0.0
2018-Feb-12 12:00N 29°34' W 090°36'0 0.0
2018-Feb-12 11:30N 29°34' W 090°36'0 0.0
2018-Feb-12 11:00N 29°34' W 090°36'0 0.0
2018-Feb-12 10:30N 29°34' W 090°36'0 0.0
2018-Feb-12 09:57N 29°34' W 090°36'0 0.0
2018-Feb-12 09:30N 29°34' W 090°36'0 0.0
2018-Feb-12 09:00N 29°34' W 090°36'0 0.0
2018-Feb-12 08:30N 29°34' W 090°36'0 0.0
2018-Feb-12 08:00N 29°34' W 090°36'0 0.0
2018-Feb-12 07:30N 29°34' W 090°36'0 0.0
2018-Feb-12 07:00N 29°34' W 090°36'0 0.0
2018-Feb-12 06:30N 29°34' W 090°36'0 0.0
2018-Feb-12 06:00N 29°34' W 090°36'0 0.0
2018-Feb-12 05:30N 29°34' W 090°36'0 0.0
2018-Feb-12 05:00N 29°34' W 090°36'0 0.0
2018-Feb-12 04:30N 29°34' W 090°36'0 0.0
2018-Feb-12 03:57N 29°34' W 090°36'0 0.0
2018-Feb-12 03:30N 29°34' W 090°36'0 0.0
2018-Feb-12 03:00N 29°34' W 090°36'0 0.0
2018-Feb-12 02:30N 29°34' W 090°36'0 0.0
2018-Feb-12 02:00N 29°34' W 090°36'0 0.0
2018-Feb-12 01:30N 29°34' W 090°36'0 0.0
2018-Feb-12 01:00N 29°34' W 090°36'0 0.0
2018-Feb-12 00:30N 29°34' W 090°36'0 0.0
2018-Feb-12 00:00N 29°34' W 090°36'0 0.0
2018-Feb-11 23:30N 29°34' W 090°36'0 0.0
2018-Feb-11 23:00N 29°34' W 090°36'0 0.0
2018-Feb-11 22:30N 29°34' W 090°36'0 0.0
2018-Feb-11 22:00N 29°34' W 090°36'0 0.0
2018-Feb-11 21:30N 29°34' W 090°36'0 0.0
2018-Feb-11 21:00N 29°34' W 090°36'0 0.0
2018-Feb-11 20:30N 29°34' W 090°36'0 0.0
2018-Feb-11 20:00N 29°34' W 090°36'0 0.0
2018-Feb-11 19:30N 29°34' W 090°36'0 0.0
2018-Feb-11 19:00N 29°34' W 090°36'0 0.0
2018-Feb-11 18:30N 29°34' W 090°36'0 0.0
2018-Feb-11 18:00N 29°34' W 090°36'0 0.0
2018-Feb-11 17:30N 29°34' W 090°36'0 0.0
2018-Feb-11 17:00N 29°34' W 090°36'0 0.0
2018-Feb-11 16:30N 29°34' W 090°36'0 0.0
2018-Feb-11 16:00N 29°34' W 090°36'0 0.0
2018-Feb-11 15:30N 29°34' W 090°36'0 0.0
2018-Feb-11 15:00N 29°34' W 090°36'0 0.0
2018-Feb-11 14:30N 29°34' W 090°36'0 0.0
2018-Feb-11 14:00N 29°34' W 090°36'0 0.0
2018-Feb-11 13:30N 29°34' W 090°36'0 0.0
2018-Feb-11 13:00N 29°34' W 090°36'0 0.0
2018-Feb-11 12:30N 29°34' W 090°36'0 0.0
2018-Feb-11 12:00N 29°34' W 090°36'0 0.0
2018-Feb-11 11:30N 29°34' W 090°36'0 0.0
2018-Feb-11 11:00N 29°34' W 090°36'0 0.0
2018-Feb-11 10:30N 29°34' W 090°36'0 0.0
2018-Feb-11 10:00N 29°34' W 090°36'0 0.0
2018-Feb-11 09:30N 29°34' W 090°36'0 0.0
2018-Feb-11 09:00N 29°34' W 090°36'0 0.0
2018-Feb-11 08:30N 29°34' W 090°36'0 0.0
2018-Feb-11 08:00N 29°34' W 090°36'0 0.0
2018-Feb-11 07:30N 29°34' W 090°36'0 0.0
2018-Feb-11 07:00N 29°34' W 090°36'0 0.0
2018-Feb-11 06:30N 29°34' W 090°36'0 0.0
2018-Feb-11 06:00N 29°34' W 090°36'0 0.0
2018-Feb-11 05:30N 29°34' W 090°36'0 0.0
2018-Feb-11 05:00N 29°34' W 090°36'0 0.0
2018-Feb-11 04:30N 29°34' W 090°36'0 0.0
2018-Feb-11 04:00N 29°34' W 090°36'0 0.0
2018-Feb-11 03:30N 29°34' W 090°36'0 0.0
2018-Feb-11 03:00N 29°34' W 090°36'0 0.0
2018-Feb-11 02:30N 29°34' W 090°36'0 0.0
2018-Feb-11 02:00N 29°34' W 090°36'0 0.0
2018-Feb-11 01:30N 29°34' W 090°36'0 0.0
2018-Feb-11 01:00N 29°34' W 090°36'0 0.0
2018-Feb-11 00:30N 29°34' W 090°36'0 0.0
2018-Feb-11 00:00N 29°34' W 090°36'0 0.0
2018-Feb-10 23:30N 29°34' W 090°36'0 0.0
2018-Feb-10 23:00N 29°34' W 090°36'0 0.0
2018-Feb-10 22:30N 29°34' W 090°36'0 0.0
2018-Feb-10 22:00N 29°34' W 090°36'0 0.0
2018-Feb-10 21:30N 29°34' W 090°36'0 0.0
2018-Feb-10 21:00N 29°34' W 090°36'0 0.0
2018-Feb-10 20:30N 29°34' W 090°36'0 0.0
2018-Feb-10 20:00N 29°34' W 090°36'0 0.0
2018-Feb-10 19:30N 29°34' W 090°36'0 0.0
2018-Feb-10 19:00N 29°34' W 090°36'0 0.0
2018-Feb-10 18:30N 29°34' W 090°36'0 0.0
2018-Feb-10 18:00N 29°34' W 090°36'0 0.0
2018-Feb-10 17:30N 29°34' W 090°36'0 0.0
2018-Feb-10 17:00N 29°34' W 090°36'0 0.0
2018-Feb-10 16:30N 29°34' W 090°36'0 0.0
2018-Feb-10 16:00N 29°34' W 090°36'0 0.0
2018-Feb-10 15:30N 29°34' W 090°36'0 0.0
2018-Feb-10 15:00N 29°34' W 090°36'0 0.0
2018-Feb-10 14:30N 29°34' W 090°36'0 0.0
2018-Feb-10 14:00N 29°34' W 090°36'0 0.0
2018-Feb-10 13:30N 29°34' W 090°36'0 0.0
2018-Feb-10 13:00N 29°34' W 090°36'0 0.0
2018-Feb-10 12:30N 29°34' W 090°36'0 0.0
2018-Feb-10 12:00N 29°34' W 090°36'0 0.0
2018-Feb-10 11:30N 29°34' W 090°36'0 0.0
2018-Feb-10 11:00N 29°34' W 090°36'0 0.0
2018-Feb-10 10:30N 29°34' W 090°36'0 0.0
2018-Feb-10 10:00N 29°34' W 090°36'0 0.0
2018-Feb-10 09:30N 29°34' W 090°36'0 0.0
2018-Feb-10 09:00N 29°34' W 090°36'0 0.0
2018-Feb-10 08:30N 29°34' W 090°36'0 0.0
2018-Feb-10 08:00N 29°34' W 090°36'0 0.0
2018-Feb-10 07:30N 29°34' W 090°36'0 0.0
2018-Feb-10 06:57N 29°34' W 090°36'0 0.0
2018-Feb-10 06:30N 29°34' W 090°36'0 0.0
2018-Feb-10 06:00N 29°34' W 090°36'0 0.0
2018-Feb-10 05:30N 29°34' W 090°36'0 0.0
2018-Feb-10 05:00N 29°34' W 090°36'0 0.0
2018-Feb-10 04:30N 29°34' W 090°36'0 0.0
2018-Feb-10 04:00N 29°34' W 090°36'0 0.0
2018-Feb-10 03:30N 29°34' W 090°36'0 0.0
2018-Feb-10 03:00N 29°34' W 090°36'0 0.0
2018-Feb-10 02:30N 29°34' W 090°36'0 0.0
2018-Feb-10 02:00N 29°34' W 090°36'0 0.0
2018-Feb-10 01:30N 29°34' W 090°36'0 0.0
2018-Feb-10 01:00N 29°34' W 090°36'0 0.0
2018-Feb-10 00:30N 29°34' W 090°36'0 0.0
2018-Feb-10 00:00N 29°34' W 090°36'0 0.0
2018-Feb-09 23:30N 29°34' W 090°36'0 0.0
2018-Feb-09 23:00N 29°34' W 090°36'0 0.0
2018-Feb-09 22:45N 29°34' W 090°36'  
2018-Feb-05 19:51N 29°34' W 090°36'0 0.0
2018-Feb-05 19:30N 29°34' W 090°36'0 0.0
2018-Feb-05 13:17N 29°35' W 090°36'0 0.0
2018-Feb-05 12:59N 29°35' W 090°36'0 0.0
2018-Feb-05 12:29N 29°35' W 090°36'0 0.0
2018-Feb-05 11:59N 29°35' W 090°36'0 0.0
2018-Feb-05 11:29N 29°35' W 090°36'0 0.0
2018-Feb-05 10:59N 29°35' W 090°36'0 0.0
2018-Feb-05 10:29N 29°35' W 090°36'0 0.0
2018-Feb-05 09:59N 29°35' W 090°36'0 0.0
2018-Feb-05 09:29N 29°35' W 090°36'0 0.0
2018-Feb-05 08:59N 29°35' W 090°36'0 0.0
2018-Feb-05 08:29N 29°35' W 090°36'0 0.0
2018-Feb-05 07:59N 29°35' W 090°36'0 0.0
2018-Feb-05 07:29N 29°35' W 090°36'0 0.0
2018-Feb-05 06:59N 29°35' W 090°36'0 0.0
2018-Feb-05 06:29N 29°35' W 090°36'0 0.0
2018-Feb-05 05:29N 29°35' W 090°36'0 0.0
2018-Feb-05 04:59N 29°35' W 090°36'0 0.0
2018-Feb-05 04:29N 29°35' W 090°36'0 0.0
2018-Feb-05 03:56N 29°35' W 090°36'0 0.0
2018-Feb-05 03:29N 29°35' W 090°36'0 0.0
2018-Feb-05 02:59N 29°35' W 090°36'0 0.0
2018-Feb-05 02:29N 29°35' W 090°36'0 0.0
2018-Feb-05 01:59N 29°35' W 090°36'0 0.0
2018-Feb-05 01:29N 29°35' W 090°36'0 0.0
2018-Feb-05 00:59N 29°35' W 090°36'0 0.0
2018-Feb-05 00:29N 29°35' W 090°36'0 0.0
2018-Feb-04 23:59N 29°35' W 090°36'0 0.0
2018-Feb-04 23:29N 29°35' W 090°36'0 0.0
2018-Feb-04 22:59N 29°35' W 090°36'0 0.0
2018-Feb-04 22:29N 29°35' W 090°36'0 0.0
2018-Feb-04 21:59N 29°35' W 090°36'0 0.0
2018-Feb-04 21:29N 29°35' W 090°36'0 0.0
2018-Feb-04 20:59N 29°35' W 090°36'0 0.0
2018-Feb-04 19:59N 29°35' W 090°36'0 0.0
2018-Feb-04 19:29N 29°35' W 090°36'0 0.0
2018-Feb-04 18:59N 29°35' W 090°36'0 0.0
2018-Feb-04 18:29N 29°35' W 090°36'0 0.0
2018-Feb-04 17:59N 29°35' W 090°36'0 0.0
2018-Feb-04 17:29N 29°35' W 090°36'0 0.0
2018-Feb-04 15:29N 29°35' W 090°36'0 0.0
2018-Feb-04 14:59N 29°35' W 090°36'0 0.0
2018-Feb-04 14:29N 29°35' W 090°36'0 0.0
2018-Feb-04 13:59N 29°35' W 090°36'0 0.0
2018-Feb-04 13:29N 29°35' W 090°36'0 0.0
2018-Feb-04 12:59N 29°35' W 090°36'0 0.0
2018-Feb-04 12:29N 29°35' W 090°36'0 0.0
2018-Feb-04 11:59N 29°35' W 090°36'0 0.0
2018-Feb-04 11:29N 29°35' W 090°36'0 0.0
2018-Feb-04 09:59N 29°35' W 090°36'0 0.0
2018-Feb-04 08:59N 29°35' W 090°36'0 0.0
2018-Feb-04 08:29N 29°35' W 090°36'0 0.0
2018-Feb-04 07:59N 29°35' W 090°36'0 0.0
2018-Feb-04 07:29N 29°35' W 090°36'0 0.0
2018-Feb-04 06:59N 29°35' W 090°36'0 0.0
2018-Feb-04 06:29N 29°35' W 090°36'0 0.0
2018-Feb-04 05:59N 29°35' W 090°36'0 0.0
2018-Feb-04 05:29N 29°35' W 090°36'0 0.0
2018-Feb-04 04:59N 29°35' W 090°36'0 0.0
2018-Feb-04 04:29N 29°35' W 090°36'0 0.0
2018-Feb-04 03:59N 29°35' W 090°36'0 0.0
2018-Feb-04 03:29N 29°35' W 090°36'0 0.0
2018-Feb-04 02:59N 29°35' W 090°36'0 0.0
2018-Feb-04 02:29N 29°35' W 090°36'0 0.0
2018-Feb-04 01:59N 29°35' W 090°36'0 0.0
2018-Feb-04 01:29N 29°35' W 090°36'0 0.0
2018-Feb-04 00:59N 29°35' W 090°36'0 0.0
2018-Feb-04 00:29N 29°35' W 090°36'0 0.0
2018-Feb-03 23:59N 29°35' W 090°36'0 0.0
2018-Feb-03 23:29N 29°35' W 090°36'0 0.0
2018-Feb-03 22:59N 29°35' W 090°36'0 0.0
2018-Feb-03 22:29N 29°35' W 090°36'0 0.0
2018-Feb-03 21:59N 29°35' W 090°36'0 0.0
2018-Feb-03 21:29N 29°35' W 090°36'0 0.0
2018-Feb-03 20:59N 29°35' W 090°36'0 0.0
2018-Feb-03 20:29N 29°35' W 090°36'0 0.0
2018-Feb-03 19:59N 29°35' W 090°36'0 0.0
2018-Feb-03 18:29N 29°35' W 090°36'0 0.0
2018-Feb-03 17:59N 29°35' W 090°36'0 0.0
2018-Feb-03 17:29N 29°35' W 090°36'0 0.0
2018-Feb-03 16:59N 29°35' W 090°36'0 0.0
2018-Feb-03 15:59N 29°35' W 090°36'0 0.0
2018-Feb-03 15:29N 29°35' W 090°36'0 0.0
2018-Feb-03 14:59N 29°35' W 090°36'0 0.0
2018-Feb-03 14:29N 29°35' W 090°36'0 0.0
2018-Feb-03 13:59N 29°35' W 090°36'0 0.0
2018-Feb-03 13:29N 29°35' W 090°36'0 0.0
2018-Feb-03 12:59N 29°35' W 090°36'0 0.0
2018-Feb-03 12:23N 29°35' W 090°36'0 0.0
2018-Feb-03 11:59N 29°35' W 090°36'0 0.0
2018-Feb-03 11:29N 29°35' W 090°36'0 0.0
2018-Feb-03 10:59N 29°35' W 090°36'0 0.0
2018-Feb-03 10:26N 29°35' W 090°36'0 0.0
2018-Feb-03 09:59N 29°35' W 090°36'0 0.0
2018-Feb-03 09:29N 29°35' W 090°36'0 0.0
2018-Feb-03 08:59N 29°35' W 090°36'0 0.0
2018-Feb-03 08:29N 29°35' W 090°36'0 0.0
2018-Feb-03 07:59N 29°35' W 090°36'0 0.0
2018-Feb-03 06:26N 29°35' W 090°36'0 0.0
2018-Feb-03 05:59N 29°35' W 090°36'0 0.0
2018-Feb-03 05:26N 29°35' W 090°36'0 0.0
2018-Feb-03 04:59N 29°35' W 090°36'0 0.0
2018-Feb-03 03:59N 29°35' W 090°36'0 0.0
2018-Feb-03 03:29N 29°35' W 090°36'0 0.0
2018-Feb-03 01:59N 29°35' W 090°36'0 0.0
2018-Feb-03 01:29N 29°35' W 090°36'0 0.0
2018-Feb-03 00:59N 29°35' W 090°36'0 0.0
2018-Feb-03 00:29N 29°35' W 090°36'0 0.0
2018-Feb-02 23:59N 29°35' W 090°36'0 0.0
2018-Feb-02 23:29N 29°35' W 090°36'0 0.0
2018-Feb-02 22:59N 29°35' W 090°36'0 0.0
2018-Feb-02 22:29N 29°35' W 090°36'0 0.0
2018-Feb-02 21:59N 29°35' W 090°36'0 0.0
2018-Feb-02 21:29N 29°35' W 090°36'0 0.0
2018-Feb-02 20:56N 29°35' W 090°36'0 0.0
2018-Feb-02 20:29N 29°35' W 090°36'0 0.0
2018-Feb-02 19:59N 29°35' W 090°36'0 0.0
2018-Feb-02 18:59N 29°35' W 090°36'  

Dump ship's entire track history